Search METAR Data

METAR Data for LICC:

LICC 241550Z 27008KT 8000 -DZ SCT045 BKN070 13/10 Q1010